createdAt,value
2019-02-21T15:23:54.751Z,14.10
2019-02-21T15:26:23.456Z,14.10
2019-02-21T15:28:52.172Z,14.00
2019-02-21T15:31:20.953Z,14.00
2019-02-21T15:33:49.673Z,13.90
2019-02-21T15:36:18.570Z,13.90
2019-02-21T15:38:47.393Z,13.90
2019-02-21T15:41:16.113Z,13.90
2019-02-21T15:43:44.883Z,13.80
2019-02-21T15:46:15.218Z,13.80
2019-02-21T15:48:44.755Z,13.70
2019-02-21T15:51:13.737Z,13.70
2019-02-21T15:53:42.696Z,13.60
2019-02-21T15:56:11.433Z,13.60
2019-02-21T15:58:40.361Z,13.60
2019-02-21T16:01:09.064Z,13.60
2019-02-21T16:03:38.896Z,13.60
2019-02-21T16:06:07.872Z,13.60
2019-02-21T16:08:36.576Z,13.50
2019-02-21T16:11:05.375Z,13.50
2019-02-21T16:13:34.693Z,13.50
2019-02-21T16:16:03.641Z,13.50
2019-02-21T16:18:32.393Z,13.50
2019-02-21T16:21:04.082Z,13.40
2019-02-21T16:23:32.963Z,13.40
2019-02-21T16:26:01.768Z,13.30
2019-02-21T16:28:31.898Z,13.30
2019-02-21T16:31:03.554Z,13.30
2019-02-21T16:33:32.337Z,13.30
2019-02-21T16:36:01.337Z,13.20
2019-02-21T16:38:30.088Z,13.20
2019-02-21T16:40:59.041Z,13.20
2019-02-21T16:43:27.884Z,13.10
2019-02-21T16:46:07.183Z,13.10
2019-02-21T16:48:27.297Z,13.00
2019-02-21T16:50:56.025Z,12.90
2019-02-21T16:53:24.945Z,12.80
2019-02-21T16:55:55.313Z,12.60
2019-02-21T16:58:24.034Z,12.60
2019-02-21T17:00:56.802Z,12.50
2019-02-21T17:03:25.937Z,12.40
2019-02-21T17:05:54.668Z,12.30
2019-02-21T17:08:23.537Z,12.20
2019-02-21T17:10:52.332Z,12.10
2019-02-21T17:13:21.169Z,11.90
2019-02-21T17:15:49.977Z,11.80
2019-02-21T17:18:18.760Z,11.70
2019-02-21T17:20:48.913Z,11.60
2019-02-21T17:23:22.874Z,11.50
2019-02-21T17:25:48.089Z,11.50
2019-02-21T17:28:17.059Z,11.40
2019-02-21T17:30:45.966Z,11.40
2019-02-21T17:33:15.192Z,11.30
2019-02-21T17:35:45.179Z,11.30
2019-02-21T17:38:14.605Z,11.30
2019-02-21T17:40:43.690Z,11.20
2019-02-21T17:43:12.854Z,11.20
2019-02-21T17:45:41.707Z,11.10
2019-02-21T17:48:10.738Z,11.00
2019-02-21T17:50:40.154Z,11.00
2019-02-21T17:53:09.216Z,10.90
2019-02-21T17:55:41.561Z,10.80
2019-02-21T17:58:11.843Z,10.80
2019-02-21T18:00:46.609Z,10.80
2019-02-21T18:03:15.928Z,10.80
2019-02-21T18:05:45.224Z,10.80
2019-02-21T18:08:14.120Z,10.70
2019-02-21T18:10:43.233Z,10.60
2019-02-21T18:13:12.136Z,10.50
2019-02-21T18:15:41.104Z,10.50
2019-02-21T18:18:10.456Z,10.40
2019-02-21T18:20:39.593Z,10.30
2019-02-21T18:23:08.609Z,10.20
2019-02-21T18:25:49.721Z,10.20
2019-02-21T18:28:18.936Z,10.10
2019-02-21T18:30:48.218Z,10.10
2019-02-21T18:33:17.441Z,10.10
2019-02-21T18:35:46.531Z,10.10
2019-02-21T18:38:15.352Z,10.10
2019-02-21T18:40:44.297Z,10.10
2019-02-21T18:43:13.809Z,10.10
2019-02-21T18:45:42.800Z,10.10
2019-02-21T18:48:11.545Z,10.10
2019-02-21T18:50:40.482Z,10.00
2019-02-21T18:53:09.752Z,9.90
2019-02-21T18:55:38.648Z,9.90
2019-02-21T18:58:07.777Z,9.90
2019-02-21T19:00:37.705Z,9.80
2019-02-21T19:03:06.794Z,9.70
2019-02-21T19:05:36.512Z,9.70
2019-02-21T19:08:05.852Z,9.60
2019-02-21T19:10:35.779Z,9.60
2019-02-21T19:13:07.483Z,9.60
2019-02-21T19:15:35.617Z,9.50
2019-02-21T19:18:04.912Z,9.50
2019-02-21T19:20:35.825Z,9.50
2019-02-21T19:23:04.936Z,9.50
2019-02-21T19:25:34.210Z,9.40
2019-02-21T19:28:03.249Z,9.40
2019-02-21T19:30:35.578Z,9.30
2019-02-21T19:33:04.987Z,9.20
2019-02-21T19:35:34.312Z,9.20
2019-02-21T19:38:10.257Z,9.20
2019-02-21T19:40:35.888Z,9.30
2019-02-21T19:43:05.113Z,9.30
2019-02-21T19:45:34.264Z,9.30
2019-02-21T19:48:04.344Z,9.30
2019-02-21T19:50:33.600Z,9.40
2019-02-21T19:53:02.729Z,9.30
2019-02-21T19:55:31.697Z,9.30
2019-02-21T19:58:00.880Z,9.20
2019-02-21T20:00:31.660Z,9.10
2019-02-21T20:03:00.833Z,9.00
2019-02-21T20:05:29.616Z,9.00
2019-02-21T20:08:08.243Z,8.90
2019-02-21T20:10:30.034Z,8.80
2019-02-21T20:13:00.424Z,8.80
2019-02-21T20:15:29.480Z,8.70
2019-02-21T20:17:58.257Z,8.70
2019-02-21T20:20:30.009Z,8.70
2019-02-21T20:22:59.121Z,8.70
2019-02-21T20:25:28.297Z,8.60
2019-02-21T20:27:59.138Z,8.60
2019-02-21T20:30:29.811Z,8.60
2019-02-21T20:32:59.232Z,8.60
2019-02-21T20:35:28.377Z,8.60
2019-02-21T20:38:01.344Z,8.60
2019-02-21T20:40:30.778Z,8.70
2019-02-21T20:42:59.811Z,8.80
2019-02-21T20:45:29.224Z,8.90
2019-02-21T20:47:58.344Z,9.00
2019-02-21T20:50:28.496Z,9.10
2019-02-21T20:52:57.632Z,9.10
2019-02-21T20:55:26.695Z,9.10
2019-02-21T20:57:55.604Z,9.10
2019-02-21T21:00:24.555Z,9.10
2019-02-21T21:02:53.519Z,9.00
2019-02-21T21:05:22.434Z,9.00
2019-02-21T21:07:51.368Z,9.10
2019-02-21T21:10:20.441Z,9.10
2019-02-21T21:12:49.458Z,9.00
2019-02-21T21:15:18.331Z,9.00
2019-02-21T21:17:48.721Z,8.90
2019-02-21T21:20:18.920Z,8.80
2019-02-21T21:22:47.740Z,8.60
2019-02-21T21:25:17.690Z,8.50
2019-02-21T21:27:46.570Z,8.40
2019-02-21T21:30:19.713Z,8.30
2019-02-21T21:32:48.532Z,8.10
2019-02-21T21:35:17.306Z,8.00
2019-02-21T21:37:46.033Z,8.00
2019-02-21T21:40:17.012Z,7.90
2019-02-21T21:42:46.434Z,7.80
2019-02-21T21:45:16.769Z,7.80
2019-02-21T21:47:45.800Z,7.70
2019-02-21T21:50:16.841Z,7.70
2019-02-21T21:52:45.741Z,7.70
2019-02-21T21:55:14.673Z,7.70
2019-02-21T21:57:43.560Z,7.70
2019-02-21T22:00:17.853Z,7.80
2019-02-21T22:02:46.233Z,7.90
2019-02-21T22:05:15.221Z,7.80
2019-02-21T22:07:44.052Z,7.80
2019-02-21T22:10:13.923Z,7.80
2019-02-21T22:12:44.051Z,7.80
2019-02-21T22:15:18.841Z,7.70
2019-02-21T22:17:48.962Z,7.70
2019-02-21T22:20:18.117Z,7.70
2019-02-21T22:22:47.163Z,7.60
2019-02-21T22:25:15.953Z,7.60
2019-02-21T22:27:44.857Z,7.70
2019-02-21T22:30:15.935Z,7.70
2019-02-21T22:32:44.835Z,7.70
2019-02-21T22:35:13.681Z,7.70
2019-02-21T22:37:42.484Z,7.70
2019-02-21T22:40:16.553Z,7.80
2019-02-21T22:42:45.339Z,7.80
2019-02-21T22:45:15.274Z,7.80
2019-02-21T22:47:44.240Z,7.70
2019-02-21T22:50:17.513Z,7.70
2019-02-21T22:52:46.394Z,7.70
2019-02-21T22:55:15.305Z,7.70
2019-02-21T22:57:44.247Z,7.60
2019-02-21T23:00:25.729Z,7.60
2019-02-21T23:02:54.800Z,7.60
2019-02-21T23:05:32.616Z,7.50
2019-02-21T23:08:02.065Z,7.60
2019-02-21T23:10:31.128Z,7.60
2019-02-21T23:13:00.025Z,7.60
2019-02-21T23:15:29.273Z,7.60
2019-02-21T23:17:58.473Z,7.50
2019-02-21T23:20:28.552Z,7.50
2019-02-21T23:22:57.426Z,7.40
2019-02-21T23:25:26.296Z,7.50
2019-02-21T23:27:55.242Z,7.70
2019-02-21T23:30:23.921Z,7.90
2019-02-21T23:32:52.676Z,7.80
2019-02-21T23:35:21.512Z,7.70
2019-02-21T23:37:50.362Z,7.60
2019-02-21T23:40:19.281Z,7.60
2019-02-21T23:42:50.594Z,7.60
2019-02-21T23:45:20.042Z,7.50
2019-02-21T23:47:50.093Z,7.50
2019-02-21T23:50:21.769Z,7.30
2019-02-21T23:52:50.690Z,7.30
2019-02-21T23:55:19.569Z,7.20
2019-02-21T23:57:48.385Z,7.20
